Hauptseite
METAR-TAF:

METAR-TAF

Flughäfen :

Prince Said Ibrahim International Airport

Moroni, Komoren

Breite: 11-32S, Länge: 043-16E, Höhe: 29 m

Beobachtung

Neuester Wetterbericht von vor 52 Minuten, um 05:00 UTC
Wind 7 kt aus Ost/Südost
Temperatur 28°C
Luftfeuchtigkeit 70%
Luftdruck 1014 hPa
Sichtweite 10 km oder mehr
Durchbrochene Bewölkung in der Höhe von 2000 ft

METAR: FMCH 180500Z 11007KT 9999 BKN020 28/22 Q1014 NOSIG

Zeit: 08:52 (05:52 UTC)

Prognose

Neuester Wetterbericht von vor 52 Minuten, um 05:00 UTC
Gültige Prognose vom 18 um 06 UTC bis 19 um 12 UTC
Wind 12 kt aus Ost
Sichtweite 10 km oder mehr
Durchbrochene Bewölkung in der Höhe von 2000 ft
Wahrscheinlichkeit 30% :
Zeitweise
vom 18 um 06 UTC bis 18 um 16 UTC
Sichtweite: 4500 m
Regenschauer

TAF: FMCH 180500Z 1806/1912 10012KT 9999 BKN020 PROB30 TEMPO 1806/1816 4500 SHRA

Wetterbeobachtungen und Prognosen von mehr als 4000 Flughäfen (METAR und TAF Bericht).

Die verfügbaren Stationen werden durch gelbe und rote Markierungen auf der Karte dargestellt.

Führen Sie die Maus auf sie, um den Namen der Station zu sehen.

Darauf klicken, um die Beobachtung von Wetterbeobachtungen und Prognosen zu sehen.

Um die Karte zu ändern : klicken Sie auf den grünen Tasten mit einem schwarzen Kreuz Zum Vergrößern, auf den grünen Button mit einem Gedankenstrich zu verkleinern, oder auf die grünen Pfeile für benachbarte Karten.


METAR-TAF: